Time;durP1;ratioP1;P1;durP2;ratioP2;P2;SDS_P1;SDS_P2;PMS_P1;PMS_P2;Temp;Humidity;BMP_temperature;BMP_pressure;BME280_temperature;BME280_humidity;BME280_pressure;Samples;Min_cycle;Max_cycle;Signal;HPM_P1;HPM_P2
2020/10/13 00:00:25;;;;;;;1.2;0.8;;;;;;;;;;;;;
2020/10/13 00:02:51;;;;;;;1.3;0.9;;;;;;;;;;;;;
2020/10/13 00:05:15;;;;;;;6.1;0.8;;;;;;;;;;;;;
2020/10/13 00:07:41;;;;;;;1.2;1;;;;;;;;;;;;;
2020/10/13 00:10:06;;;;;;;0.8;0.7;;;;;;;;;;;;;
2020/10/13 00:12:32;;;;;;;1.8;1.1;;;;;;;;;;;;;
2020/10/13 00:14:56;;;;;;;1.2;0.7;;;;;;;;;;;;;
2020/10/13 00:17:21;;;;;;;0.9;0.8;;;;;;;;;;;;;
2020/10/13 00:19:46;;;;;;;2;1;;;;;;;;;;;;;
2020/10/13 00:22:11;;;;;;;1;0.8;;;;;;;;;;;;;
2020/10/13 00:24:37;;;;;;;2.2;1.3;;;;;;;;;;;;;
2020/10/13 00:27:02;;;;;;;1.4;0.9;;;;;;;;;;;;;
2020/10/13 00:29:27;;;;;;;1.8;0.9;;;;;;;;;;;;;
2020/10/13 00:31:52;;;;;;;1;0.7;;;;;;;;;;;;;
2020/10/13 00:34:17;;;;;;;1.9;1;;;;;;;;;;;;;
2020/10/13 00:36:45;;;;;;;1.5;0.9;;;;;;;;;;;;;
2020/10/13 00:39:09;;;;;;;1.8;1.1;;;;;;;;;;;;;
2020/10/13 00:41:37;;;;;;;1.8;0.9;;;;;;;;;;;;;
2020/10/13 00:44:02;;;;;;;2.2;0.7;;;;;;;;;;;;;
2020/10/13 00:46:26;;;;;;;1.8;1.1;;;;;;;;;;;;;
2020/10/13 00:48:52;;;;;;;1;0.9;;;;;;;;;;;;;
2020/10/13 00:51:17;;;;;;;1.3;1;;;;;;;;;;;;;
2020/10/13 00:53:42;;;;;;;1.2;0.8;;;;;;;;;;;;;
2020/10/13 00:56:07;;;;;;;1.1;0.8;;;;;;;;;;;;;
2020/10/13 00:58:32;;;;;;;0.9;0.7;;;;;;;;;;;;;
2020/10/13 01:01:00;;;;;;;1.1;0.9;;;;;;;;;;;;;
2020/10/13 01:03:24;;;;;;;2.9;0.8;;;;;;;;;;;;;
2020/10/13 01:05:49;;;;;;;1.3;0.8;;;;;;;;;;;;;
2020/10/13 01:08:15;;;;;;;5.4;0.9;;;;;;;;;;;;;
2020/10/13 01:10:41;;;;;;;1.4;1;;;;;;;;;;;;;
2020/10/13 01:13:07;;;;;;;1.3;0.8;;;;;;;;;;;;;
2020/10/13 01:15:33;;;;;;;1.3;0.6;;;;;;;;;;;;;
2020/10/13 01:17:59;;;;;;;0.9;0.8;;;;;;;;;;;;;
2020/10/13 01:20:25;;;;;;;1.9;1;;;;;;;;;;;;;
2020/10/13 01:22:50;;;;;;;1.9;1;;;;;;;;;;;;;
2020/10/13 01:25:15;;;;;;;1.4;1;;;;;;;;;;;;;
2020/10/13 01:27:41;;;;;;;1.6;0.8;;;;;;;;;;;;;
2020/10/13 01:30:06;;;;;;;0.8;0.8;;;;;;;;;;;;;
2020/10/13 01:32:32;;;;;;;1.3;0.7;;;;;;;;;;;;;
2020/10/13 01:34:57;;;;;;;1;0.8;;;;;;;;;;;;;
2020/10/13 01:37:25;;;;;;;1.3;1;;;;;;;;;;;;;
2020/10/13 01:39:49;;;;;;;1.2;0.8;;;;;;;;;;;;;
2020/10/13 01:42:16;;;;;;;1.4;0.9;;;;;;;;;;;;;
2020/10/13 01:44:41;;;;;;;1.1;0.9;;;;;;;;;;;;;
2020/10/13 01:47:08;;;;;;;0.8;0.8;;;;;;;;;;;;;
2020/10/13 01:49:33;;;;;;;1.5;0.8;;;;;;;;;;;;;
2020/10/13 01:51:59;;;;;;;1.7;0.8;;;;;;;;;;;;;
2020/10/13 01:54:24;;;;;;;0.8;0.8;;;;;;;;;;;;;
2020/10/13 01:56:52;;;;;;;1.4;1.1;;;;;;;;;;;;;
2020/10/13 01:59:15;;;;;;;0.9;0.8;;;;;;;;;;;;;
2020/10/13 02:01:43;;;;;;;1.2;0.9;;;;;;;;;;;;;
2020/10/13 02:04:07;;;;;;;2.9;1.2;;;;;;;;;;;;;
2020/10/13 02:06:33;;;;;;;2.3;1.3;;;;;;;;;;;;;
2020/10/13 02:08:58;;;;;;;1.3;0.7;;;;;;;;;;;;;
2020/10/13 02:11:24;;;;;;;1.7;1;;;;;;;;;;;;;
2020/10/13 02:13:50;;;;;;;0.9;0.8;;;;;;;;;;;;;
2020/10/13 02:16:15;;;;;;;1.9;1;;;;;;;;;;;;;
2020/10/13 02:18:41;;;;;;;1.5;0.7;;;;;;;;;;;;;
2020/10/13 02:21:06;;;;;;;1.7;0.9;;;;;;;;;;;;;
2020/10/13 02:23:31;;;;;;;1.5;1;;;;;;;;;;;;;
2020/10/13 02:25:58;;;;;;;1.4;1;;;;;;;;;;;;;
2020/10/13 02:28:23;;;;;;;1;0.9;;;;;;;;;;;;;
2020/10/13 02:30:50;;;;;;;1.3;1.2;;;;;;;;;;;;;
2020/10/13 02:33:15;;;;;;;1.6;1.1;;;;;;;;;;;;;
2020/10/13 02:35:42;;;;;;;0.9;0.9;;;;;;;;;;;;;
2020/10/13 02:38:07;;;;;;;1.4;0.8;;;;;;;;;;;;;
2020/10/13 02:40:33;;;;;;;1.1;0.8;;;;;;;;;;;;;
2020/10/13 02:42:57;;;;;;;1.6;1.1;;;;;;;;;;;;;
2020/10/13 02:45:26;;;;;;;4;1;;;;;;;;;;;;;
2020/10/13 02:47:50;;;;;;;1.8;1.2;;;;;;;;;;;;;
2020/10/13 02:50:17;;;;;;;1.6;0.9;;;;;;;;;;;;;
2020/10/13 02:52:42;;;;;;;1.9;1;;;;;;;;;;;;;
2020/10/13 02:55:07;;;;;;;1.5;1;;;;;;;;;;;;;
2020/10/13 02:57:32;;;;;;;1.1;0.8;;;;;;;;;;;;;
2020/10/13 02:59:57;;;;;;;2.5;1.2;;;;;;;;;;;;;
2020/10/13 03:02:23;;;;;;;1.1;0.7;;;;;;;;;;;;;
2020/10/13 03:04:48;;;;;;;1.5;1;;;;;;;;;;;;;
2020/10/13 03:07:13;;;;;;;0.9;0.8;;;;;;;;;;;;;
2020/10/13 03:09:39;;;;;;;1.8;0.9;;;;;;;;;;;;;
2020/10/13 03:12:04;;;;;;;1.9;1.2;;;;;;;;;;;;;
2020/10/13 03:14:30;;;;;;;1.6;1.1;;;;;;;;;;;;;
2020/10/13 03:16:55;;;;;;;0.9;0.8;;;;;;;;;;;;;
2020/10/13 03:19:22;;;;;;;7;0.9;;;;;;;;;;;;;
2020/10/13 03:21:47;;;;;;;1.8;1.2;;;;;;;;;;;;;
2020/10/13 03:24:13;;;;;;;1.2;0.9;;;;;;;;;;;;;
2020/10/13 03:26:38;;;;;;;1.3;0.9;;;;;;;;;;;;;
2020/10/13 03:29:04;;;;;;;2.8;1.1;;;;;;;;;;;;;
2020/10/13 03:31:29;;;;;;;1.6;1;;;;;;;;;;;;;
2020/10/13 03:33:56;;;;;;;1.9;1.1;;;;;;;;;;;;;
2020/10/13 03:36:21;;;;;;;1.4;0.8;;;;;;;;;;;;;
2020/10/13 03:38:46;;;;;;;1.6;0.9;;;;;;;;;;;;;
2020/10/13 03:41:11;;;;;;;1;0.9;;;;;;;;;;;;;
2020/10/13 03:43:37;;;;;;;1.4;0.9;;;;;;;;;;;;;
2020/10/13 03:46:02;;;;;;;1.6;0.9;;;;;;;;;;;;;
2020/10/13 03:48:28;;;;;;;2.3;1.1;;;;;;;;;;;;;
2020/10/13 03:50:53;;;;;;;1.3;0.9;;;;;;;;;;;;;
2020/10/13 03:53:19;;;;;;;0.9;0.7;;;;;;;;;;;;;
2020/10/13 03:55:44;;;;;;;1.6;1.1;;;;;;;;;;;;;
2020/10/13 03:58:10;;;;;;;1.3;1.2;;;;;;;;;;;;;
2020/10/13 04:02:35;;;;;;;1.5;1;;;;;;;6.93;84.52051;934.7645;;;;
2020/10/13 04:05:00;;;;;;;1.9;0.9;;;;;;;6.98;84.14746;934.7559;;;;
2020/10/13 04:07:27;;;;;;;2.2;1.2;;;;;;;6.98;84.03418;934.7109;;;;
2020/10/13 04:09:55;;;;;;;2.7;1.3;;;;;;;6.87;84.55469;934.7278;;;;
2020/10/13 04:12:17;;;;;;;1.4;0.9;;;;;;;6.85;84.8457;934.6824;;;;
2020/10/13 04:14:45;;;;;;;1.3;1;;;;;;;6.91;84.4502;934.6502;;;;
2020/10/13 04:17:10;;;;;;;1.4;1;;;;;;;6.94;84.29688;934.6031;;;;
2020/10/13 04:19:35;;;;;;;2.9;0.9;;;;;;;6.95;84.20996;934.6755;;;;
2020/10/13 04:22:00;;;;;;;1.3;0.8;;;;;;;6.98;84.32715;934.6553;;;;
2020/10/13 04:24:25;;;;;;;1.8;1.1;;;;;;;7.06;84.11816;934.6348;;;;
2020/10/13 04:26:50;;;;;;;1.6;1.2;;;;;;;7.09;83.71582;934.618;;;;
2020/10/13 04:29:15;;;;;;;1.6;0.9;;;;;;;7.04;83.55762;934.5917;;;;
2020/10/13 04:31:42;;;;;;;1.4;1.1;;;;;;;6.95;84.41211;934.605;;;;
2020/10/13 04:34:06;;;;;;;1.6;0.8;;;;;;;6.93;84.89551;934.6561;;;;
2020/10/13 04:36:32;;;;;;;1.4;0.8;;;;;;;6.9;84.7207;934.6319;;;;
2020/10/13 04:38:57;;;;;;;1.5;1;;;;;;;6.85;85.50391;934.6714;;;;
2020/10/13 04:41:31;;;;;;;1.4;1;;;;;;;6.9;85.16016;934.6476;;;;
2020/10/13 04:43:50;;;;;;;0.7;0.7;;;;;;;6.89;85.4541;934.6689;;;;
2020/10/13 04:46:15;;;;;;;2.5;1.1;;;;;;;6.95;84.9668;934.548;;;;
2020/10/13 04:48:40;;;;;;;1.9;1.4;;;;;;;6.88;85.36035;934.5499;;;;
2020/10/13 04:51:05;;;;;;;1.4;1;;;;;;;6.84;85.48926;934.5683;;;;
2020/10/13 04:53:30;;;;;;;2.3;1.1;;;;;;;6.83;85.51172;934.6094;;;;
2020/10/13 04:55:58;;;;;;;1.9;1.3;;;;;;;6.87;85.4834;934.5594;;;;
2020/10/13 04:58:23;;;;;;;2.1;1.1;;;;;;;6.95;85.47852;934.5695;;;;
2020/10/13 05:00:50;;;;;;;1.6;1.1;;;;;;;7.07;85.2168;934.5764;;;;
2020/10/13 05:03:15;;;;;;;2.7;0.9;;;;;;;7.18;84.72852;934.5465;;;;
2020/10/13 05:05:40;;;;;;;3.3;1;;;;;;;7.27;84.06836;934.5006;;;;
2020/10/13 05:08:08;;;;;;;1.5;0.9;;;;;;;7.27;83.66016;934.5181;;;;
2020/10/13 05:10:31;;;;;;;3.3;1.2;;;;;;;7.25;83.73633;934.5321;;;;
2020/10/13 05:12:57;;;;;;;1.5;1;;;;;;;7.26;83.97461;934.4633;;;;
2020/10/13 05:15:22;;;;;;;1.5;0.9;;;;;;;7.22;84.39746;934.4478;;;;
2020/10/13 05:17:47;;;;;;;1.3;0.9;;;;;;;;;;;;;
2020/10/13 05:20:12;;;;;;;2.3;1.3;;;;;;;;;;;;;
2020/10/13 05:22:38;;;;;;;3.2;1.4;;;;;;;;;;;;;
2020/10/13 05:25:03;;;;;;;1.7;1.2;;;;;;;;;;;;;
2020/10/13 05:27:28;;;;;;;1.5;1;;;;;;;;;;;;;
2020/10/13 05:29:54;;;;;;;1.6;0.9;;;;;;;;;;;;;
2020/10/13 05:32:18;;;;;;;1.3;0.9;;;;;;;;;;;;;
2020/10/13 05:34:44;;;;;;;3;1.1;;;;;;;;;;;;;
2020/10/13 05:37:09;;;;;;;2.7;1.2;;;;;;;;;;;;;
2020/10/13 05:39:34;;;;;;;2;1.1;;;;;;;;;;;;;
2020/10/13 05:42:00;;;;;;;2;1.1;;;;;;;;;;;;;
2020/10/13 05:44:41;;;;;;;1.3;1;;;;;;;;;;;;;
2020/10/13 05:46:51;;;;;;;1.4;1;;;;;;;;;;;;;
2020/10/13 05:49:15;;;;;;;1.9;1.3;;;;;;;;;;;;;
2020/10/13 05:51:41;;;;;;;3.9;1.4;;;;;;;;;;;;;
2020/10/13 05:54:07;;;;;;;2.3;1.2;;;;;;;;;;;;;
2020/10/13 05:56:32;;;;;;;1.4;1;;;;;;;;;;;;;
2020/10/13 05:58:57;;;;;;;1.9;1.1;;;;;;;;;;;;;
2020/10/13 06:01:22;;;;;;;1;0.7;;;;;;;;;;;;;
2020/10/13 06:03:47;;;;;;;0.9;0.7;;;;;;;;;;;;;
2020/10/13 06:06:13;;;;;;;0.8;0.7;;;;;;;;;;;;;
2020/10/13 06:08:38;;;;;;;1.5;1;;;;;;;;;;;;;
2020/10/13 06:11:07;;;;;;;1.3;1.1;;;;;;;;;;;;;
2020/10/13 06:13:28;;;;;;;1.2;1;;;;;;;;;;;;;
2020/10/13 06:15:53;;;;;;;0.7;0.7;;;;;;;;;;;;;
2020/10/13 06:18:18;;;;;;;0.8;0.7;;;;;;;;;;;;;
2020/10/13 06:20:45;;;;;;;1.6;0.8;;;;;;;;;;;;;
2020/10/13 06:23:10;;;;;;;0.5;0.5;;;;;;;;;;;;;
2020/10/13 06:25:35;;;;;;;2.7;0.8;;;;;;;;;;;;;
2020/10/13 06:28:00;;;;;;;0.9;0.7;;;;;;;;;;;;;
2020/10/13 06:30:27;;;;;;;0.6;0.5;;;;;;;;;;;;;
2020/10/13 06:32:52;;;;;;;0.8;0.6;;;;;;;;;;;;;
2020/10/13 06:35:20;;;;;;;1.5;0.8;;;;;;;;;;;;;
2020/10/13 06:37:43;;;;;;;1.7;0.7;;;;;;;;;;;;;
2020/10/13 06:40:08;;;;;;;2.3;0.8;;;;;;;;;;;;;
2020/10/13 06:42:33;;;;;;;0.7;0.4;;;;;;;;;;;;;
2020/10/13 06:44:58;;;;;;;1.3;0.6;;;;;;;;;;;;;
2020/10/13 06:47:24;;;;;;;0.5;0.5;;;;;;;;;;;;;
2020/10/13 06:49:50;;;;;;;0.8;0.7;;;;;;;;;;;;;
2020/10/13 06:52:15;;;;;;;0.8;0.6;;;;;;;;;;;;;
2020/10/13 06:54:41;;;;;;;0.5;0.5;;;;;;;;;;;;;
2020/10/13 06:57:06;;;;;;;1.3;0.7;;;;;;;;;;;;;
2020/10/13 06:59:31;;;;;;;1.3;0.8;;;;;;;;;;;;;
2020/10/13 07:01:57;;;;;;;1.6;0.8;;;;;;;;;;;;;
2020/10/13 07:04:22;;;;;;;1.7;0.9;;;;;;;;;;;;;
2020/10/13 07:06:47;;;;;;;1.8;1;;;;;;;;;;;;;
2020/10/13 07:09:26;;;;;;;0.8;0.5;;;;;;;;;;;;;
2020/10/13 07:11:59;;;;;;;1.1;0.7;;;;;;;;;;;;;
2020/10/13 07:14:02;;;;;;;6.5;2.8;;;;;;;;;;;;;
2020/10/13 07:16:28;;;;;;;2.6;1.6;;;;;;;;;;;;;
2020/10/13 07:18:52;;;;;;;1.3;0.9;;;;;;;;;;;;;
2020/10/13 07:21:18;;;;;;;2.8;1.5;;;;;;;;;;;;;
2020/10/13 07:23:43;;;;;;;2.4;1.2;;;;;;;;;;;;;
2020/10/13 07:26:10;;;;;;;1.2;0.8;;;;;;;;;;;;;
2020/10/13 07:28:33;;;;;;;1.4;1.1;;;;;;;;;;;;;
2020/10/13 07:31:09;;;;;;;2;0.8;;;;;;;;;;;;;
2020/10/13 07:33:23;;;;;;;0.9;0.7;;;;;;;;;;;;;
2020/10/13 07:35:49;;;;;;;0.9;0.7;;;;;;;;;;;;;
2020/10/13 07:38:14;;;;;;;0.7;0.7;;;;;;;;;;;;;
2020/10/13 07:40:40;;;;;;;1.7;0.9;;;;;;;;;;;;;
2020/10/13 07:43:05;;;;;;;1.1;0.8;;;;;;;;;;;;;
2020/10/13 07:45:33;;;;;;;2.6;1.2;;;;;;;;;;;;;
2020/10/13 07:47:55;;;;;;;1.3;0.9;;;;;;;;;;;;;
2020/10/13 07:50:21;;;;;;;2.9;1.4;;;;;;;;;;;;;
2020/10/13 07:52:46;;;;;;;1.8;1.2;;;;;;;;;;;;;
2020/10/13 07:55:11;;;;;;;1.3;0.9;;;;;;;;;;;;;
2020/10/13 07:57:38;;;;;;;1.8;1;;;;;;;;;;;;;
2020/10/13 08:00:04;;;;;;;0.7;0.6;;;;;;;;;;;;;
2020/10/13 08:02:26;;;;;;;1.2;0.8;;;;;;;;;;;;;
2020/10/13 08:04:51;;;;;;;2.6;0.9;;;;;;;;;;;;;
2020/10/13 08:07:16;;;;;;;3.2;0.8;;;;;;;;;;;;;
2020/10/13 08:09:41;;;;;;;0.9;0.8;;;;;;;;;;;;;
2020/10/13 08:12:08;;;;;;;2.6;0.9;;;;;;;;;;;;;
2020/10/13 08:14:32;;;;;;;1.5;1;;;;;;;;;;;;;
2020/10/13 08:16:57;;;;;;;1.5;0.7;;;;;;;;;;;;;
2020/10/13 08:19:22;;;;;;;0.6;0.5;;;;;;;;;;;;;
2020/10/13 08:21:47;;;;;;;0.6;0.5;;;;;;;;;;;;;
2020/10/13 08:24:12;;;;;;;0.8;0.6;;;;;;;;;;;;;
2020/10/13 08:26:37;;;;;;;1.1;0.9;;;;;;;;;;;;;
2020/10/13 08:29:02;;;;;;;1.4;0.9;;;;;;;;;;;;;
2020/10/13 08:31:28;;;;;;;1.2;0.8;;;;;;;;;;;;;
2020/10/13 08:43:53;;;;;;;1.1;0.7;;;;;;;;;;;;;
2020/10/13 08:46:22;;;;;;;0.7;0.6;;;;;;;;;;;;;
2020/10/13 08:51:05;;;;;;;0.7;0.6;;;;;;;;;;;;;
2020/10/13 08:53:30;;;;;;;1.9;1;;;;;;;;;;;;;
2020/10/13 08:55:55;;;;;;;1;0.8;;;;;;;;;;;;;
2020/10/13 08:58:21;;;;;;;2.2;1.1;;;;;;;;;;;;;
2020/10/13 09:00:46;;;;;;;3.2;1;;;;;;;;;;;;;
2020/10/13 09:03:11;;;;;;;1.4;0.9;;;;;;;;;;;;;
2020/10/13 09:05:36;;;;;;;1.7;1.1;;;;;;;;;;;;;
2020/10/13 09:08:01;;;;;;;2;0.7;;;;;;;;;;;;;
2020/10/13 09:10:26;;;;;;;2;1;;;;;;;;;;;;;
2020/10/13 09:12:51;;;;;;;1.3;0.9;;;;;;;;;;;;;
2020/10/13 09:15:17;;;;;;;1.2;0.8;;;;;;;;;;;;;
2020/10/13 09:17:42;;;;;;;2.2;0.9;;;;;;;;;;;;;
2020/10/13 09:20:08;;;;;;;0.8;0.7;;;;;;;;;;;;;
2020/10/13 09:22:33;;;;;;;1.1;0.8;;;;;;;;;;;;;
2020/10/13 09:24:59;;;;;;;1;0.7;;;;;;;;;;;;;
2020/10/13 09:27:24;;;;;;;1.1;0.9;;;;;;;;;;;;;
2020/10/13 09:29:49;;;;;;;1.4;0.9;;;;;;;;;;;;;
2020/10/13 09:32:14;;;;;;;0.7;0.7;;;;;;;;;;;;;
2020/10/13 09:34:39;;;;;;;1.5;0.9;;;;;;;;;;;;;
2020/10/13 09:37:04;;;;;;;0.9;0.7;;;;;;;;;;;;;
2020/10/13 09:40:12;;;;;;;1.2;0.8;;;;;;;;;;;;;
2020/10/13 09:41:56;;;;;;;1.2;0.9;;;;;;;;;;;;;
2020/10/13 09:44:21;;;;;;;1.8;0.6;;;;;;;;;;;;;
2020/10/13 09:46:46;;;;;;;0.5;0.5;;;;;;;;;;;;;
2020/10/13 09:49:11;;;;;;;0.5;0.5;;;;;;;;;;;;;
2020/10/13 09:51:36;;;;;;;1.1;0.8;;;;;;;;;;;;;
2020/10/13 09:54:01;;;;;;;0.9;0.4;;;;;;;;;;;;;
2020/10/13 09:56:27;;;;;;;0.7;0.5;;;;;;;;;;;;;
2020/10/13 09:58:52;;;;;;;1;0.6;;;;;;;;;;;;;
2020/10/13 10:01:17;;;;;;;1.3;0.7;;;;;;;;;;;;;
2020/10/13 10:03:42;;;;;;;1.3;0.6;;;;;;;;;;;;;
2020/10/13 10:06:07;;;;;;;1.1;0.8;;;;;;;;;;;;;
2020/10/13 10:08:33;;;;;;;0.8;0.6;;;;;;;;;;;;;
2020/10/13 10:10:58;;;;;;;0.9;0.5;;;;;;;;;;;;;
2020/10/13 10:13:24;;;;;;;0.6;0.4;;;;;;;;;;;;;
2020/10/13 10:15:49;;;;;;;0.7;0.5;;;;;;;;;;;;;
2020/10/13 10:18:15;;;;;;;0.5;0.3;;;;;;;;;;;;;
2020/10/13 10:20:40;;;;;;;0.7;0.4;;;;;;;;;;;;;
2020/10/13 10:23:07;;;;;;;0.9;0.6;;;;;;;;;;;;;
2020/10/13 10:25:31;;;;;;;11.4;0.6;;;;;;;;;;;;;
2020/10/13 10:27:57;;;;;;;0.6;0.4;;;;;;;;;;;;;
2020/10/13 10:30:22;;;;;;;0.6;0.3;;;;;;;;;;;;;
2020/10/13 10:32:47;;;;;;;0.9;0.6;;;;;;;;;;;;;
2020/10/13 10:35:14;;;;;;;0.3;0.2;;;;;;;;;;;;;
2020/10/13 10:37:39;;;;;;;0.2;0.2;;;;;;;;;;;;;
2020/10/13 10:40:04;;;;;;;0.4;0.3;;;;;;;;;;;;;
2020/10/13 10:42:30;;;;;;;0.2;0.2;;;;;;;;;;;;;
2020/10/13 10:45:12;;;;;;;0.2;0.2;;;;;;;;;;;;;
2020/10/13 10:47:21;;;;;;;0.2;0.2;;;;;;;;;;;;;
2020/10/13 10:49:47;;;;;;;0.4;0.4;;;;;;;;;;;;;
2020/10/13 10:52:12;;;;;;;0.3;0.3;;;;;;;;;;;;;
2020/10/13 10:54:37;;;;;;;0.5;0.4;;;;;;;;;;;;;
2020/10/13 10:57:02;;;;;;;1.5;0.7;;;;;;;;;;;;;
2020/10/13 10:59:29;;;;;;;0.5;0.4;;;;;;;;;;;;;
2020/10/13 11:01:55;;;;;;;0.6;0.5;;;;;;;;;;;;;
2020/10/13 11:04:20;;;;;;;0.7;0.5;;;;;;;;;;;;;
2020/10/13 11:06:45;;;;;;;0.7;0.5;;;;;;;;;;;;;
2020/10/13 11:09:16;;;;;;;0.7;0.6;;;;;;;;;;;;;
2020/10/13 11:11:36;;;;;;;0.6;0.4;;;;;;;;;;;;;
2020/10/13 11:14:02;;;;;;;0.7;0.4;;;;;;;;;;;;;
2020/10/13 11:16:27;;;;;;;0.8;0.6;;;;;;;;;;;;;
2020/10/13 11:18:53;;;;;;;0.9;0.7;;;;;;;;;;;;;
2020/10/13 11:21:18;;;;;;;1.3;0.8;;;;;;;;;;;;;
2020/10/13 11:24:03;;;;;;;1;0.7;;;;;;;;;;;;;
2020/10/13 11:26:10;;;;;;;0.9;0.6;;;;;;;;;;;;;
2020/10/13 11:28:33;;;;;;;0.8;0.6;;;;;;;;;;;;;
2020/10/13 11:31:01;;;;;;;0.8;0.7;;;;;;;;;;;;;
2020/10/13 11:33:24;;;;;;;0.8;0.6;;;;;;;;;;;;;
2020/10/13 11:35:50;;;;;;;0.7;0.5;;;;;;;;;;;;;
2020/10/13 11:38:17;;;;;;;0.5;0.4;;;;;;;;;;;;;
2020/10/13 11:40:42;;;;;;;0.2;0.2;;;;;;;;;;;;;
2020/10/13 11:43:08;;;;;;;0.3;0.3;;;;;;;;;;;;;
2020/10/13 11:45:32;;;;;;;0.5;0.4;;;;;;;;;;;;;
2020/10/13 11:47:58;;;;;;;0.4;0.1;;;;;;;;;;;;;
2020/10/13 11:50:24;;;;;;;0.3;0.2;;;;;;;;;;;;;
2020/10/13 11:52:49;;;;;;;0.3;0.2;;;;;;;;;;;;;
2020/10/13 11:55:15;;;;;;;0.2;0.2;;;;;;;;;;;;;
2020/10/13 11:57:40;;;;;;;0.2;0.2;;;;;;;;;;;;;
2020/10/13 12:00:05;;;;;;;0.1;0.1;;;;;;;;;;;;;
2020/10/13 12:02:30;;;;;;;1.5;0.3;;;;;;;;;;;;;
2020/10/13 12:04:56;;;;;;;0.2;0.2;;;;;;;;;;;;;
2020/10/13 12:07:22;;;;;;;0.1;0.1;;;;;;;;;;;;;
2020/10/13 12:09:47;;;;;;;0.1;0.1;;;;;;;;;;;;;
2020/10/13 12:12:12;;;;;;;1.1;0.5;;;;;;;;;;;;;
2020/10/13 12:14:38;;;;;;;0.4;0.4;;;;;;;;;;;;;
2020/10/13 12:17:04;;;;;;;0.3;0.3;;;;;;;;;;;;;
2020/10/13 12:19:29;;;;;;;1.8;0.4;;;;;;;;;;;;;
2020/10/13 12:21:55;;;;;;;2.1;0.4;;;;;;;;;;;;;
2020/10/13 12:24:20;;;;;;;0.1;0.1;;;;;;;;;;;;;
2020/10/13 12:26:45;;;;;;;0.2;0.1;;;;;;;;;;;;;
2020/10/13 12:29:10;;;;;;;0.3;0.2;;;;;;;;;;;;;
2020/10/13 12:31:37;;;;;;;1.5;0.5;;;;;;;;;;;;;
2020/10/13 12:34:02;;;;;;;0.8;0.4;;;;;;;;;;;;;
2020/10/13 12:36:28;;;;;;;0.5;0.3;;;;;;;;;;;;;
2020/10/13 12:38:53;;;;;;;0.2;0.1;;;;;;;;;;;;;
2020/10/13 12:41:19;;;;;;;0.3;0.3;;;;;;;;;;;;;
2020/10/13 12:43:45;;;;;;;0.7;0.2;;;;;;;;;;;;;
2020/10/13 12:46:09;;;;;;;1.1;0.2;;;;;;;;;;;;;
2020/10/13 12:48:34;;;;;;;2.8;0.3;;;;;;;;;;;;;
2020/10/13 12:50:59;;;;;;;0.2;0.2;;;;;;;;;;;;;
2020/10/13 12:53:25;;;;;;;0.4;0.3;;;;;;;;;;;;;
2020/10/13 12:55:50;;;;;;;2.5;0.6;;;;;;;;;;;;;
2020/10/13 12:58:15;;;;;;;0.4;0.4;;;;;;;;;;;;;
2020/10/13 13:00:40;;;;;;;0.4;0.3;;;;;;;;;;;;;
2020/10/13 13:03:06;;;;;;;0.6;0.4;;;;;;;;;;;;;
2020/10/13 13:05:31;;;;;;;0.5;0.4;;;;;;;;;;;;;
2020/10/13 13:07:56;;;;;;;0.7;0.5;;;;;;;;;;;;;
2020/10/13 13:10:21;;;;;;;0.4;0.3;;;;;;;;;;;;;
2020/10/13 13:12:46;;;;;;;0.6;0.5;;;;;;;;;;;;;
2020/10/13 13:15:16;;;;;;;0.3;0.3;;;;;;;;;;;;;
2020/10/13 13:17:40;;;;;;;1.2;0.8;;;;;;;;;;;;;
2020/10/13 13:20:05;;;;;;;1.1;0.9;;;;;;;;;;;;;
2020/10/13 13:22:31;;;;;;;1.6;0.8;;;;;;;;;;;;;
2020/10/13 13:24:56;;;;;;;4.6;1;;;;;;;;;;;;;
2020/10/13 13:27:21;;;;;;;0.6;0.5;;;;;;;;;;;;;
2020/10/13 13:29:46;;;;;;;1.1;0.8;;;;;;;;;;;;;
2020/10/13 13:32:11;;;;;;;1.4;0.8;;;;;;;;;;;;;
2020/10/13 13:34:36;;;;;;;0.3;0.3;;;;;;;;;;;;;
2020/10/13 13:37:01;;;;;;;1;0.6;;;;;;;;;;;;;
2020/10/13 13:39:27;;;;;;;1.4;0.7;;;;;;;;;;;;;
2020/10/13 13:41:53;;;;;;;0.3;0.2;;;;;;;;;;;;;
2020/10/13 13:44:18;;;;;;;0.4;0.4;;;;;;;;;;;;;
2020/10/13 13:46:44;;;;;;;1;0.6;;;;;;;;;;;;;
2020/10/13 13:49:09;;;;;;;0.6;0.4;;;;;;;;;;;;;
2020/10/13 13:51:35;;;;;;;0.6;0.4;;;;;;;;;;;;;
2020/10/13 13:54:01;;;;;;;0.7;0.5;;;;;;;;;;;;;
2020/10/13 13:56:27;;;;;;;0.7;0.7;;;;;;;;;;;;;
2020/10/13 13:58:52;;;;;;;0.6;0.6;;;;;;;;;;;;;
2020/10/13 14:01:19;;;;;;;0.6;0.4;;;;;;;;;;;;;
2020/10/13 14:03:44;;;;;;;0.7;0.5;;;;;;;;;;;;;
2020/10/13 14:06:10;;;;;;;1;0.6;;;;;;;;;;;;;
2020/10/13 14:08:35;;;;;;;1.6;0.7;;;;;;;;;;;;;
2020/10/13 14:11:01;;;;;;;1.8;0.7;;;;;;;;;;;;;
2020/10/13 14:13:26;;;;;;;1.2;0.5;;;;;;;;;;;;;
2020/10/13 14:15:53;;;;;;;1.3;0.5;;;;;;;;;;;;;
2020/10/13 14:18:18;;;;;;;0.7;0.5;;;;;;;;;;;;;
2020/10/13 14:20:44;;;;;;;0.4;0.4;;;;;;;;;;;;;
2020/10/13 14:23:10;;;;;;;2.6;0.8;;;;;;;;;;;;;
2020/10/13 14:25:35;;;;;;;1.7;1.1;;;;;;;;;;;;;
2020/10/13 14:28:00;;;;;;;1.1;0.9;;;;;;;;;;;;;
2020/10/13 14:30:25;;;;;;;3.1;1.3;;;;;;;;;;;;;
2020/10/13 14:32:50;;;;;;;0.7;0.6;;;;;;;;;;;;;
2020/10/13 14:35:15;;;;;;;0.3;0.3;;;;;;;;;;;;;
2020/10/13 14:37:41;;;;;;;0.7;0.6;;;;;;;;;;;;;
2020/10/13 14:40:06;;;;;;;0.6;0.5;;;;;;;;;;;;;
2020/10/13 14:42:31;;;;;;;0.4;0.3;;;;;;;;;;;;;
2020/10/13 14:44:56;;;;;;;0.4;0.4;;;;;;;;;;;;;
2020/10/13 14:47:21;;;;;;;0.3;0.3;;;;;;;;;;;;;
2020/10/13 14:49:47;;;;;;;0.5;0.3;;;;;;;;;;;;;
2020/10/13 14:52:12;;;;;;;1.3;0.6;;;;;;;;;;;;;
2020/10/13 14:54:39;;;;;;;0.5;0.5;;;;;;;;;;;;;
2020/10/13 14:57:04;;;;;;;0.2;0.2;;;;;;;;;;;;;
2020/10/13 14:59:30;;;;;;;0.6;0.3;;;;;;;;;;;;;
2020/10/13 15:01:55;;;;;;;0.4;0.3;;;;;;;;;;;;;
2020/10/13 15:04:20;;;;;;;0.3;0.2;;;;;;;;;;;;;
2020/10/13 15:06:45;;;;;;;0.7;0.5;;;;;;;;;;;;;
2020/10/13 15:09:14;;;;;;;0.4;0.4;;;;;;;;;;;;;
2020/10/13 15:11:35;;;;;;;0.3;0.3;;;;;;;;;;;;;
2020/10/13 15:14:01;;;;;;;0.7;0.5;;;;;;;;;;;;;
2020/10/13 15:16:25;;;;;;;0.3;0.2;;;;;;;;;;;;;
2020/10/13 15:18:51;;;;;;;3;0.4;;;;;;;;;;;;;
2020/10/13 15:21:16;;;;;;;1;0.3;;;;;;;;;;;;;
2020/10/13 15:23:41;;;;;;;0.3;0.3;;;;;;;;;;;;;
2020/10/13 15:26:06;;;;;;;0.5;0.3;;;;;;;;;;;;;
2020/10/13 15:28:32;;;;;;;0.7;0.7;;;;;;;;;;;;;
2020/10/13 15:30:58;;;;;;;1.7;0.6;;;;;;;;;;;;;
2020/10/13 15:33:24;;;;;;;1.2;0.6;;;;;;;;;;;;;
2020/10/13 15:35:49;;;;;;;1.5;0.9;;;;;;;;;;;;;
2020/10/13 15:38:15;;;;;;;0.5;0.5;;;;;;;;;;;;;
2020/10/13 15:40:42;;;;;;;1.1;0.8;;;;;;;;;;;;;
2020/10/13 15:43:07;;;;;;;0.5;0.4;;;;;;;;;;;;;
2020/10/13 15:45:32;;;;;;;0.4;0.3;;;;;;;;;;;;;
2020/10/13 15:47:58;;;;;;;0.7;0.6;;;;;;;;;;;;;
2020/10/13 15:50:24;;;;;;;0.9;0.4;;;;;;;;;;;;;
2020/10/13 15:52:48;;;;;;;0.5;0.3;;;;;;;;;;;;;
2020/10/13 15:55:15;;;;;;;0.5;0.4;;;;;;;;;;;;;
2020/10/13 15:57:40;;;;;;;0.2;0.2;;;;;;;;;;;;;
2020/10/13 16:00:10;;;;;;;0.5;0.3;;;;;;;;;;;;;
2020/10/13 16:02:35;;;;;;;0.5;0.4;;;;;;;;;;;;;
2020/10/13 16:05:00;;;;;;;0.8;0.5;;;;;;;;;;;;;
2020/10/13 16:07:26;;;;;;;0.8;0.5;;;;;;;;;;;;;
2020/10/13 16:12:19;;;;;;;0.9;0.6;;;;;;;;;;;;;
2020/10/13 16:14:46;;;;;;;0.7;0.6;;;;;;;;;;;;;
2020/10/13 16:17:11;;;;;;;0.6;0.6;;;;;;;;;;;;;
2020/10/13 16:19:36;;;;;;;2.9;1.1;;;;;;;;;;;;;
2020/10/13 16:22:01;;;;;;;1.4;0.9;;;;;;;;;;;;;
2020/10/13 16:24:26;;;;;;;2;1.5;;;;;;;;;;;;;
2020/10/13 16:26:51;;;;;;;3.4;1.4;;;;;;;;;;;;;
2020/10/13 16:29:17;;;;;;;2.5;1.9;;;;;;;;;;;;;
2020/10/13 16:31:42;;;;;;;2.2;1.8;;;;;;;;;;;;;
2020/10/13 16:34:07;;;;;;;6.5;2.7;;;;;;;;;;;;;
2020/10/13 16:36:32;;;;;;;5.5;2.9;;;;;;;;;;;;;
2020/10/13 16:38:57;;;;;;;3.5;2.2;;;;;;;;;;;;;
2020/10/13 16:41:22;;;;;;;2.5;1.4;;;;;;;;;;;;;
2020/10/13 16:43:48;;;;;;;1.5;1.3;;;;;;;;;;;;;
2020/10/13 16:46:13;;;;;;;5;1.7;;;;;;;;;;;;;
2020/10/13 16:48:38;;;;;;;1.4;1;;;;;;;;;;;;;
2020/10/13 16:51:03;;;;;;;2.6;1.3;;;;;;;;;;;;;
2020/10/13 16:53:28;;;;;;;0.7;0.7;;;;;;;;;;;;;
2020/10/13 16:55:53;;;;;;;0.7;0.6;;;;;;;;;;;;;
2020/10/13 16:58:19;;;;;;;0.6;0.6;;;;;;;;;;;;;
2020/10/13 17:00:44;;;;;;;1.5;0.7;;;;;;;;;;;;;
2020/10/13 17:03:11;;;;;;;1;0.7;;;;;;;;;;;;;
2020/10/13 17:05:36;;;;;;;0.8;0.6;;;;;;;;;;;;;
2020/10/13 17:08:01;;;;;;;1.3;0.9;;;;;;;;;;;;;
2020/10/13 17:10:26;;;;;;;1;0.7;;;;;;;;;;;;;
2020/10/13 17:12:56;;;;;;;1.9;1;;;;;;;;;;;;;
2020/10/13 17:15:17;;;;;;;1.3;0.9;;;;;;;;;;;;;
2020/10/13 17:17:43;;;;;;;3.2;1.6;;;;;;;;;;;;;
2020/10/13 17:20:08;;;;;;;1.9;1.3;;;;;;;;;;;;;
2020/10/13 17:22:33;;;;;;;1.5;1.4;;;;;;;;;;;;;
2020/10/13 17:24:58;;;;;;;2.2;1.3;;;;;;;;;;;;;
2020/10/13 17:27:23;;;;;;;2.2;1.5;;;;;;;;;;;;;
2020/10/13 17:29:49;;;;;;;2.2;1.1;;;;;;;;;;;;;
2020/10/13 17:32:14;;;;;;;2.4;1.1;;;;;;;;;;;;;
2020/10/13 17:34:39;;;;;;;2.1;1.2;;;;;;;;;;;;;
2020/10/13 17:37:08;;;;;;;1.6;1;;;;;;;;;;;;;
2020/10/13 17:39:29;;;;;;;2;1.2;;;;;;;;;;;;;
2020/10/13 17:41:54;;;;;;;2.4;1.6;;;;;;;;;;;;;
2020/10/13 17:44:20;;;;;;;2.6;1.8;;;;;;;;;;;;;
2020/10/13 17:46:45;;;;;;;3.2;1.9;;;;;;;;;;;;;
2020/10/13 17:49:10;;;;;;;3.4;2;;;;;;;;;;;;;
2020/10/13 17:51:35;;;;;;;3.9;2.2;;;;;;;;;;;;;
2020/10/13 17:54:00;;;;;;;5.4;2.6;;;;;;;;;;;;;
2020/10/13 17:56:25;;;;;;;3.6;2.3;;;;;;;;;;;;;
2020/10/13 17:58:52;;;;;;;4.8;3;;;;;;;;;;;;;
2020/10/13 18:01:16;;;;;;;4.7;2.9;;;;;;;;;;;;;
2020/10/13 18:03:44;;;;;;;14.2;3.2;;;;;;;;;;;;;
2020/10/13 18:06:10;;;;;;;3.3;2.4;;;;;;;;;;;;;
2020/10/13 18:08:35;;;;;;;5.1;2.4;;;;;;;;;;;;;
2020/10/13 18:11:00;;;;;;;5.3;2.7;;;;;;;;;;;;;
2020/10/13 18:13:25;;;;;;;2.4;1.9;;;;;;;;;;;;;
2020/10/13 18:15:51;;;;;;;3;1.5;;;;;;;;;;;;;
2020/10/13 18:18:15;;;;;;;2.3;1.2;;;;;;;;;;;;;
2020/10/13 18:20:44;;;;;;;0.9;0.7;;;;;;;;;;;;;
2020/10/13 18:23:07;;;;;;;1.3;0.7;;;;;;;;;;;;;
2020/10/13 18:25:32;;;;;;;4;1;;;;;;;;;;;;;
2020/10/13 18:27:58;;;;;;;3.5;1.8;;;;;;;;;;;;;
2020/10/13 18:30:24;;;;;;;2.5;1.6;;;;;;;;;;;;;
2020/10/13 18:32:50;;;;;;;3.2;2.2;;;;;;;;;;;;;
2020/10/13 18:35:17;;;;;;;2.7;1.6;;;;;;;;;;;;;
2020/10/13 18:37:40;;;;;;;4.4;2.1;;;;;;;;;;;;;
2020/10/13 18:40:05;;;;;;;3.2;2;;;;;;;;;;;;;
2020/10/13 18:42:31;;;;;;;2.2;1.3;;;;;;;;;;;;;
2020/10/13 18:44:56;;;;;;;1.9;1.4;;;;;;;;;;;;;
2020/10/13 18:47:23;;;;;;;5.2;3.2;;;;;;;;;;;;;
2020/10/13 18:49:48;;;;;;;7.2;3.6;;;;;;;;;;;;;
2020/10/13 18:52:14;;;;;;;5;2.8;;;;;;;;;;;;;
2020/10/13 18:54:44;;;;;;;4.8;2.6;;;;;;;;;;;;;
2020/10/13 18:57:04;;;;;;;4;2.1;;;;;;;;;;;;;
2020/10/13 18:59:29;;;;;;;2.6;1.5;;;;;;;;;;;;;
2020/10/13 19:01:54;;;;;;;1.4;1.1;;;;;;;;;;;;;
2020/10/13 19:04:22;;;;;;;1.2;1.1;;;;;;;;;;;;;
2020/10/13 19:06:45;;;;;;;2.4;1.6;;;;;;;;;;;;;
2020/10/13 19:09:10;;;;;;;1.9;1.2;;;;;;;;;;;;;
2020/10/13 19:11:36;;;;;;;1.4;0.9;;;;;;;;;;;;;
2020/10/13 19:14:01;;;;;;;1.5;0.9;;;;;;;;;;;;;
2020/10/13 19:16:35;;;;;;;2.4;0.9;;;;;;;;;;;;;
2020/10/13 19:18:51;;;;;;;1;0.8;;;;;;;;;;;;;
2020/10/13 19:21:16;;;;;;;8.3;0.7;;;;;;;;;;;;;
2020/10/13 19:23:42;;;;;;;0.6;0.4;;;;;;;;;;;;;
2020/10/13 19:26:06;;;;;;;0.6;0.6;;;;;;;;;;;;;
2020/10/13 19:28:32;;;;;;;0.6;0.6;;;;;;;;;;;;;
2020/10/13 19:30:57;;;;;;;2.1;1.3;;;;;;;;;;;;;
2020/10/13 19:33:23;;;;;;;2.8;1.8;;;;;;;;;;;;;
2020/10/13 19:35:48;;;;;;;2.9;1.3;;;;;;;;;;;;;
2020/10/13 19:38:13;;;;;;;1.7;1.3;;;;;;;;;;;;;
2020/10/13 19:40:41;;;;;;;3.8;1.6;;;;;;;;;;;;;
2020/10/13 19:43:04;;;;;;;2.4;1.3;;;;;;;;;;;;;
2020/10/13 19:45:29;;;;;;;1.7;1.3;;;;;;;;;;;;;
2020/10/13 19:47:56;;;;;;;1.5;1.2;;;;;;;;;;;;;
2020/10/13 19:50:21;;;;;;;3.5;1.2;;;;;;;;;;;;;
2020/10/13 19:52:46;;;;;;;1.6;1.2;;;;;;;;;;;;;
2020/10/13 19:55:11;;;;;;;9;1.4;;;;;;;;;;;;;
2020/10/13 19:57:38;;;;;;;1.5;1.2;;;;;;;;;;;;;
2020/10/13 20:00:04;;;;;;;3.5;1.6;;;;;;;;;;;;;
2020/10/13 20:02:29;;;;;;;2.1;1.4;;;;;;;;;;;;;
2020/10/13 20:04:53;;;;;;;3.6;1.5;;;;;;;;;;;;;
2020/10/13 20:07:18;;;;;;;3.4;1.8;;;;;;;;;;;;;
2020/10/13 20:09:43;;;;;;;1.6;1.2;;;;;;;;;;;;;
2020/10/13 20:12:09;;;;;;;1.8;1.1;;;;;;;;;;;;;
2020/10/13 20:14:35;;;;;;;2.2;1.2;;;;;;;;;;;;;
2020/10/13 20:17:00;;;;;;;1.6;0.9;;;;;;;;;;;;;